Time;durP1;ratioP1;P1;durP2;ratioP2;P2;SDS_P1;SDS_P2;PMS_P1;PMS_P2;Temp;Humidity;BMP_temperature;BMP_pressure;BME280_temperature;BME280_humidity;BME280_pressure;Samples;Min_cycle;Max_cycle;Signal;HPM_P1;HPM_P2
2022/09/11 00:01:13;;;;;;;27.67;22.90;;;16.00;1.00;;;;;;6313925;22;20401;-84
2022/09/11 00:03:56;;;;;;;38.40;22.63;;;15.90;1.00;;;;;;6313714;22;20787;-84
2022/09/11 00:06:36;;;;;;;43.47;27.60;;;15.80;1.00;;;;;;6286674;22;20394;-84
2022/09/11 00:09:16;;;;;;;31.60;22.83;;;15.80;1.00;;;;;;6286382;22;20400;-85
2022/09/11 00:12:19;;;;;;;;;;;;;;;;;;;;;
2022/09/11 00:14:52;;;;;;;35.17;24.10;;;15.80;1.00;;;;;;6311291;22;20491;-84
2022/09/11 00:18:28;;;;;;;32.50;25.60;;;15.80;1.00;;;;;;6313356;22;20390;-84
2022/09/11 00:21:07;;;;;;;38.80;27.07;;;15.80;1.00;;;;;;6165659;22;20423;-84
2022/09/11 00:24:00;;;;;;;37.40;26.60;;;15.70;1.00;;;;;;6297943;22;20421;-84
2022/09/11 00:26:44;;;;;;;;;;;;;;;;;;;;;
2022/09/11 00:32:36;;;;;;;40.50;26.60;;;15.70;1.00;;;;;;6297615;22;20428;-84
2022/09/11 00:36:02;;;;;;;39.00;27.30;;;15.70;1.00;;;;;;6284661;22;20885;-84
2022/09/11 00:38:54;;;;;;;36.27;28.13;;;15.70;1.00;;;;;;6260446;22;20434;-84
2022/09/11 00:42:10;;;;;;;34.30;27.13;;;15.60;1.00;;;;;;6283826;22;20386;-84
2022/09/11 00:45:06;;;;;;;37.13;27.93;;;15.50;1.00;;;;;;6304046;22;20396;-84
2022/09/11 00:47:42;;;;;;;43.40;27.33;;;15.60;1.00;;;;;;6285357;22;20376;-84
2022/09/11 00:50:34;;;;;;;40.43;29.97;;;15.60;1.00;;;;;;6312451;22;20415;-84
2022/09/11 00:53:34;;;;;;;41.10;29.93;;;15.60;1.00;;;;;;6297380;22;20377;-84
2022/09/11 00:56:34;;;;;;;42.30;30.37;;;15.60;1.00;;;;;;6281617;22;20385;-84
2022/09/11 01:02:55;;;;;;;46.40;30.47;;;15.60;1.00;;;;;;6313046;22;20410;-84
2022/09/11 01:09:19;;;;;;;44.23;28.90;;;15.50;1.00;;;;;;6254049;22;20441;-84
2022/09/11 01:12:17;;;;;;;45.63;31.00;;;15.50;1.00;;;;;;6285640;22;20456;-84
2022/09/11 01:19:03;;;;;;;44.40;32.60;;;15.50;1.00;;;;;;6302678;22;20385;-84
2022/09/11 01:29:32;;;;;;;48.20;33.43;;;15.50;1.00;;;;;;6305034;22;20400;-85
2022/09/11 01:35:23;;;;;;;53.03;36.73;;;15.50;1.00;;;;;;6314671;22;20399;-84
2022/09/11 01:38:20;;;;;;;53.70;36.60;;;15.50;1.00;;;;;;6286602;22;20385;-84
2022/09/11 01:41:45;;;;;;;58.97;35.57;;;15.60;1.00;;;;;;6287673;22;20378;-84
2022/09/11 01:44:17;;;;;;;51.20;32.90;;;15.60;1.00;;;;;;6162597;23;20413;-84
2022/09/11 01:51:06;;;;;;;56.40;35.27;;;15.70;1.00;;;;;;6219554;22;20493;-84
2022/09/11 01:54:16;;;;;;;44.00;30.70;;;15.80;1.00;;;;;;6278921;22;20461;-84
2022/09/11 01:58:21;;;;;;;;;;;;;;;;;;;;;
2022/09/11 02:04:16;;;;;;;62.33;33.83;;;15.90;1.00;;;;;;6173191;23;20431;-84
2022/09/11 02:07:06;;;;;;;;;;;;;;;;;;;;;
2022/09/11 02:10:16;;;;;;;54.97;36.20;;;15.90;1.00;;;;;;6191992;22;20381;-84
2022/09/11 02:13:34;;;;;;;49.03;33.80;;;15.90;1.00;;;;;;6194117;23;20404;-85
2022/09/11 02:16:40;;;;;;;;;;;;;;;;;;;;;
2022/09/11 02:19:49;;;;;;;53.57;34.50;;;15.90;1.00;;;;;;6251115;22;20395;-84
2022/09/11 02:22:29;;;;;;;55.60;34.27;;;16.00;1.00;;;;;;6191241;23;20957;-84
2022/09/11 02:29:36;;;;;;;;;;;;;;;;;;;;;
2022/09/11 02:36:19;;;;;;;61.50;36.30;;;16.00;1.00;;;;;;6115449;23;20397;-84
2022/09/11 02:39:29;;;;;;;58.03;33.40;;;16.10;1.00;;;;;;6237108;22;20387;-84
2022/09/11 02:45:48;;;;;;;62.83;35.43;;;16.10;1.00;;;;;;6250871;23;20410;-84
2022/09/11 02:51:55;;;;;;;63.97;35.40;;;16.20;1.00;;;;;;6238049;22;20459;-85
2022/09/11 02:55:16;;;;;;;;;;;;;;;;;;;;;
2022/09/11 02:58:15;;;;;;;56.73;34.40;;;16.20;1.00;;;;;;6253133;23;20396;-84
2022/09/11 03:01:01;;;;;;;64.10;34.50;;;16.20;1.00;;;;;;6250941;23;20398;-84
2022/09/11 03:03:52;;;;;;;61.63;35.20;;;16.20;1.00;;;;;;6252696;22;20519;-84
2022/09/11 03:09:39;;;;;;;70.20;34.50;;;16.20;1.00;;;;;;6228320;22;20380;-84
2022/09/11 03:12:14;;;;;;;61.13;34.33;;;16.20;1.00;;;;;;6250049;22;20453;-84
2022/09/11 03:15:05;;;;;;;;;;;;;;;;;;;;;
2022/09/11 03:17:41;;;;;;;65.00;35.90;;;16.20;1.00;;;;;;6251119;23;20377;-84
2022/09/11 03:21:33;;;;;;;;;;;;;;;;;;;;;
2022/09/11 03:24:00;;;;;;;60.40;34.83;;;16.20;1.00;;;;;;6214248;22;20491;-84
2022/09/11 03:27:09;;;;;;;;;;;;;;;;;;;;;
2022/09/11 03:35:33;;;;;;;73.60;37.03;;;16.20;1.00;;;;;;6242689;22;20483;-84
2022/09/11 03:38:28;;;;;;;92.87;38.63;;;16.20;1.00;;;;;;6251646;22;20854;-84
2022/09/11 03:41:15;;;;;;;74.30;38.30;;;16.30;1.00;;;;;;6251339;22;20405;-84
2022/09/11 14:07:23;;;;;;;8.70;7.13;;;27.60;70.30;;;;;;6064999;23;20558;-88
2022/09/11 14:17:22;;;;;;;;;;;;;;;;;;;;;
2022/09/11 17:59:28;;;;;;;8.87;7.50;;;21.90;99.90;;;;;;6281203;22;20380;-87
2022/09/11 18:02:18;;;;;;;8.93;8.03;;;21.60;99.90;;;;;;6279504;22;20397;-88
2022/09/11 18:12:34;;;;;;;;;;;;;;;;;;;;;
2022/09/11 19:12:11;;;;;;;8.93;8.00;;;19.70;99.90;;;;;;6268323;22;20898;-83
2022/09/11 19:14:58;;;;;;;10.60;7.07;;;19.80;99.90;;;;;;6306807;22;20705;-84
2022/09/11 19:17:31;;;;;;;8.90;7.83;;;19.60;99.90;;;;;;6240068;22;20459;-84
2022/09/11 19:20:58;;;;;;;11.03;7.60;;;19.60;99.90;;;;;;6311512;22;20390;-85
2022/09/11 19:24:21;;;;;;;;;;;;;;;;;;;;;
2022/09/11 19:26:58;;;;;;;;;;;;;;;;;;;;;
2022/09/11 19:29:35;;;;;;;15.43;10.23;;;19.40;1.00;;;;;;6280538;22;20445;-84
2022/09/11 19:35:16;;;;;;;11.63;8.93;;;19.20;1.00;;;;;;6277109;22;20410;-84
2022/09/11 19:38:05;;;;;;;;;;;;;;;;;;;;;
2022/09/11 19:40:42;;;;;;;13.50;8.13;;;19.10;1.00;;;;;;6279352;22;20462;-84
2022/09/11 19:43:53;;;;;;;9.60;8.60;;;19.10;21.80;;;;;;6253719;22;20871;-84
2022/09/11 19:46:25;;;;;;;9.77;7.90;;;19.10;99.90;;;;;;6234633;23;20398;-84
2022/09/11 19:49:06;;;;;;;;;;;;;;;;;;;;;
2022/09/11 19:51:41;;;;;;;11.70;8.90;;;19.10;99.90;;;;;;6248113;23;20508;-84
2022/09/11 19:54:18;;;;;;;9.80;8.30;;;19.00;99.90;;;;;;6249277;23;20363;-84
2022/09/11 19:57:07;;;;;;;;;;;;;;;;;;;;;
2022/09/11 20:00:15;;;;;;;;;;;;;;;;;;;;;
2022/09/11 20:02:55;;;;;;;10.30;8.70;;;18.90;99.90;;;;;;6249629;23;20434;-84
2022/09/11 20:05:50;;;;;;;10.83;8.63;;;18.80;99.90;;;;;;6248224;23;20422;-84
2022/09/11 20:11:24;;;;;;;13.30;8.73;;;18.70;99.90;;;;;;6244720;22;20430;-84
2022/09/11 20:14:01;;;;;;;10.57;8.50;;;18.70;99.90;;;;;;6251345;23;20386;-84
2022/09/11 20:16:57;;;;;;;12.43;9.43;;;18.60;1.00;;;;;;6248694;23;20375;-84
2022/09/11 20:19:22;;;;;;;10.47;8.57;;;18.60;1.00;;;;;;6223049;23;20744;-84
2022/09/11 20:24:50;;;;;;;10.47;8.90;;;18.50;1.00;;;;;;6250136;23;20160;-84
2022/09/11 20:27:26;;;;;;;11.13;9.17;;;18.50;1.00;;;;;;6223621;23;20391;-84
2022/09/11 20:29:57;;;;;;;12.60;8.73;;;18.40;1.00;;;;;;6248787;23;20840;-84
2022/09/11 20:32:40;;;;;;;12.97;8.67;;;18.40;29.40;;;;;;6247266;23;20922;-84
2022/09/11 20:35:23;;;;;;;10.30;8.00;;;18.30;99.90;;;;;;6247239;23;20374;-84
2022/09/11 20:38:16;;;;;;;12.93;9.80;;;18.30;99.90;;;;;;6249002;23;20748;-84
2022/09/11 20:44:00;;;;;;;12.50;9.33;;;18.20;1.00;;;;;;6260770;22;20457;-85
2022/09/11 20:46:59;;;;;;;;;;;;;;;;;;;;;
2022/09/11 20:49:48;;;;;;;11.77;9.53;;;18.10;1.00;;;;;;6243921;22;20426;-84
2022/09/11 20:56:29;;;;;;;10.53;8.77;;;18.00;1.00;;;;;;6236418;22;20400;-84
2022/09/11 20:59:01;;;;;;;11.00;8.97;;;18.00;1.00;;;;;;6096273;23;20366;-84
2022/09/11 21:01:36;;;;;;;10.60;8.60;;;17.90;1.00;;;;;;6071910;23;20417;-84
2022/09/11 21:04:06;;;;;;;13.30;9.33;;;17.80;1.00;;;;;;6221528;23;20437;-84
2022/09/11 21:06:46;;;;;;;12.70;8.80;;;17.80;1.00;;;;;;6220881;23;20443;-84
2022/09/11 21:09:41;;;;;;;10.37;9.27;;;17.80;99.90;;;;;;6219792;23;20405;-84
2022/09/11 21:12:19;;;;;;;11.37;9.80;;;17.70;99.90;;;;;;6246562;23;20430;-84
2022/09/11 21:15:05;;;;;;;12.30;10.10;;;17.70;99.90;;;;;;6221074;23;20476;-84
2022/09/11 21:18:15;;;;;;;;;;;;;;;;;;;;;
2022/09/11 21:21:06;;;;;;;11.37;9.73;;;17.50;99.90;;;;;;6246943;22;20463;-84
2022/09/11 21:23:55;;;;;;;14.60;9.80;;;17.40;99.90;;;;;;6222224;23;20411;-84
2022/09/11 21:26:43;;;;;;;11.00;9.60;;;17.40;99.90;;;;;;6204984;23;20928;-84
2022/09/11 21:29:23;;;;;;;12.70;9.57;;;17.40;99.90;;;;;;6222230;23;20443;-84
2022/09/11 21:34:49;;;;;;;13.20;9.87;;;17.40;99.90;;;;;;6222115;22;20479;-85
2022/09/11 21:37:25;;;;;;;;;;;;;;;;;;;;;
2022/09/11 21:39:54;;;;;;;10.83;9.23;;;17.30;99.90;;;;;;6247759;23;20165;-84
2022/09/11 21:42:19;;;;;;;16.53;9.93;;;17.30;99.90;;;;;;6219774;22;20432;-84
2022/09/11 21:44:45;;;;;;;15.10;10.30;;;17.30;99.90;;;;;;6248263;23;20366;-84
2022/09/11 21:47:13;;;;;;;10.60;9.10;;;17.30;99.90;;;;;;6248626;22;20164;-84
2022/09/11 21:49:39;;;;;;;13.00;9.73;;;17.30;99.90;;;;;;6248637;22;20154;-85
2022/09/11 21:52:10;;;;;;;11.00;9.20;;;17.30;99.90;;;;;;6249598;22;20448;-85
2022/09/11 21:54:36;;;;;;;12.53;10.27;;;17.20;99.90;;;;;;6222080;23;20618;-83
2022/09/11 21:57:13;;;;;;;12.10;9.17;;;17.20;99.90;;;;;;6249793;22;20415;-83
2022/09/11 21:59:50;;;;;;;11.53;8.80;;;17.20;1.00;;;;;;6249984;23;20571;-84
2022/09/11 22:02:16;;;;;;;12.97;9.50;;;17.20;1.00;;;;;;6249246;23;20740;-84
2022/09/11 22:04:42;;;;;;;14.57;9.80;;;17.20;1.00;;;;;;6250811;22;20381;-84
2022/09/11 22:07:08;;;;;;;15.27;10.10;;;17.10;1.00;;;;;;6249691;22;20377;-83
2022/09/11 22:09:34;;;;;;;12.70;9.30;;;17.10;1.00;;;;;;6249535;23;20489;-85
2022/09/11 22:12:27;;;;;;;13.20;9.90;;;17.10;1.00;;;;;;6250852;22;20188;-84
2022/09/11 22:14:55;;;;;;;14.00;10.13;;;17.10;1.00;;;;;;6222652;23;20382;-85
2022/09/11 22:17:34;;;;;;;;;;;;;;;;;;;;;
2022/09/11 22:20:04;;;;;;;15.10;10.13;;;17.00;1.00;;;;;;6249875;23;20463;-84
2022/09/11 22:22:33;;;;;;;14.23;10.27;;;16.90;1.00;;;;;;6250519;22;20401;-85
2022/09/11 22:25:21;;;;;;;15.70;10.47;;;16.80;99.90;;;;;;6249824;22;20710;-84
2022/09/11 22:27:47;;;;;;;13.27;10.23;;;16.80;99.90;;;;;;6248814;23;20368;-85
2022/09/11 22:30:30;;;;;;;;;;;;;;;;;;;;;
2022/09/11 22:32:56;;;;;;;13.77;11.40;;;16.80;99.90;;;;;;6248292;23;20263;-84
2022/09/11 22:35:25;;;;;;;13.00;10.03;;;16.70;1.00;;;;;;6248974;22;20814;-84
2022/09/11 22:37:54;;;;;;;17.43;12.00;;;16.70;1.00;;;;;;6250511;22;20208;-84
2022/09/11 22:40:22;;;;;;;17.30;11.33;;;16.70;99.90;;;;;;6249423;22;20360;-84
2022/09/11 22:43:08;;;;;;;15.10;12.27;;;16.60;99.90;;;;;;6248805;22;20404;-84
2022/09/11 22:45:39;;;;;;;17.23;11.50;;;16.60;99.90;;;;;;6221851;23;20448;-84
2022/09/11 22:48:17;;;;;;;18.37;13.90;;;16.60;99.90;;;;;;6222646;23;20374;-84
2022/09/11 22:50:48;;;;;;;17.77;12.57;;;16.60;99.90;;;;;;6247408;23;20515;-84
2022/09/11 22:53:19;;;;;;;17.00;12.03;;;16.70;99.90;;;;;;6250274;23;20351;-84
2022/09/11 22:55:57;;;;;;;16.57;11.80;;;16.60;99.90;;;;;;6249428;23;20376;-84
2022/09/11 22:58:25;;;;;;;19.67;12.43;;;16.60;99.90;;;;;;6250623;23;20364;-84
2022/09/11 23:00:53;;;;;;;14.17;10.57;;;16.60;1.00;;;;;;6249760;22;20877;-84
2022/09/11 23:03:22;;;;;;;15.27;11.37;;;16.60;1.00;;;;;;6250045;22;20383;-84
2022/09/11 23:08:51;;;;;;;16.43;13.50;;;16.50;1.00;;;;;;6249314;23;20419;-84
2022/09/11 23:11:28;;;;;;;18.03;11.83;;;16.50;1.00;;;;;;6247915;22;20416;-84
2022/09/11 23:13:54;;;;;;;19.07;13.10;;;16.50;1.00;;;;;;6222677;23;20791;-84
2022/09/11 23:16:27;;;;;;;19.40;14.10;;;16.50;1.00;;;;;;6248021;22;20379;-84
2022/09/11 23:19:20;;;;;;;21.50;14.10;;;16.40;1.00;;;;;;6248597;23;20361;-84
2022/09/11 23:22:01;;;;;;;19.60;13.70;;;16.40;1.00;;;;;;6247708;22;20450;-84
2022/09/11 23:24:34;;;;;;;17.50;13.83;;;16.30;1.00;;;;;;6247864;23;20394;-84
2022/09/11 23:27:31;;;;;;;17.03;12.40;;;16.30;42.90;;;;;;6222194;23;20376;-85
2022/09/11 23:30:03;;;;;;;17.67;12.80;;;16.30;99.20;;;;;;6247314;23;20463;-84
2022/09/11 23:32:31;;;;;;;17.07;13.23;;;16.20;99.90;;;;;;6247195;22;20442;-84
2022/09/11 23:34:59;;;;;;;17.47;12.10;;;16.20;71.60;;;;;;6247913;22;20398;-83
2022/09/11 23:37:29;;;;;;;17.80;12.73;;;16.10;99.90;;;;;;6247690;22;20439;-85
2022/09/11 23:39:55;;;;;;;15.63;12.40;;;16.10;99.90;;;;;;6221321;23;20373;-84
2022/09/11 23:42:23;;;;;;;17.33;11.80;;;16.10;99.90;;;;;;6220268;22;20899;-84
2022/09/11 23:44:54;;;;;;;17.93;12.90;;;16.10;99.90;;;;;;6248172;23;20133;-83
2022/09/11 23:47:20;;;;;;;16.20;12.80;;;16.00;99.90;;;;;;6221420;23;20385;-83
2022/09/11 23:49:50;;;;;;;17.93;11.50;;;16.10;99.90;;;;;;6221937;23;20391;-83
2022/09/11 23:52:18;;;;;;;14.70;11.93;;;16.00;99.90;;;;;;6247309;23;20184;-84
2022/09/11 23:54:47;;;;;;;17.30;11.87;;;16.00;99.90;;;;;;6247952;22;20395;-84
2022/09/11 23:57:18;;;;;;;19.23;13.07;;;16.00;99.90;;;;;;6247504;22;20373;-83
2022/09/11 23:59:46;;;;;;;17.63;12.90;;;15.90;99.90;;;;;;6249040;22;20976;-83
